Monday, August 29, 2016
18:04 UTC
  |  Log In   |  Register Free
Airport Search:

Page Field Airport
(KFMY)

FAA data valid effective Jul 21 2016 - Sep 15 2016 (unless otherwise noted).

 
 
 
 
 
 
 
 
 
 
 
 
 
 
Current Aviation Weather for KFMY

Weather Summary


The most recent METAR observation for FMY was updated at: 12:53 UTC
METAR for FMY is not available. Closest METAR is for
METAR

METAR KFMY 291753Z 09009KT 10SM FEW050 SCT110 29/24 A2989 RMK AO2 RAB06E18 SLP125 P0000 60000 T02940239 10317 20250 58009

METAR KFMY 291724Z 09010KT 10SM FEW025 SCT034 SCT044 29/24 A2990 RMK AO2 LTG DSNT SW RAB06E18 P0000 T02940244

METAR KFMY 291709Z 09015G23KT 5SM VCTS -RA SCT028 SCT044 BKN055 28/25 A2991 RMK AO2 RAB06 P0000 T02830250

METAR KFMY 291653Z 11008KT 10SM FEW044 BKN055 BKN075 31/23 A2991 RMK AO2 SLP129 T03060233

METAR KFMY 291553Z 10011KT 10SM FEW033 BKN042 31/23 A2991 RMK AO2 SLP130 T03060228

METAR KAPF 291753Z 16012KT 10SM -RA SCT035 BKN055 BKN070 28/26 A2988 RMK AO2 RAB46 SLP118 P0000 60002 T02830256 10322 20256 58010

METAR KPGD 291753Z 11010KT 10SM FEW040 BKN070 32/23 A2990 RMK AO2 SLP126 T03170228 10328 20250 58017

METAR KRSW 291753Z 09008KT 10SM FEW030 29/23 A2990 RMK AO2 RAE1656B15E27 TSB03E05 SLP123 P0000 60000 T02940233 10317 20250 58010

TAF for FMY is not available.
TAF

KFMY - TAF KFMY 291741Z 2918/3018 10012KT P6SM VCTS BKN035CB BKN080 OVC200

KFMY - TEMPO 2918/2922 10015G25KT 5SM SHRA BKN025

KFMY - FM300100 06009KT P6SM SCT025 BKN100 OVC200

KFMY - FM301400 12010KT P6SM VCSH SCT025 BKN080 OVC200 =

KRSW - TAF KRSW 291741Z 2918/3018 10012KT P6SM VCTS BKN035CB BKN080 OVC200

KRSW - TEMPO 2918/2922 10015G25KT 5SM SHRA BKN025

KRSW - FM300100 06009KT P6SM SCT025 BKN100 OVC200

KRSW - FM301400 12010KT P6SM VCSH SCT025 BKN080 OVC200 =

KPGD - TAF KPGD 291741Z 2918/3018 10012KT P6SM VCTS BKN035CB BKN080 OVC200

KPGD - TEMPO 2918/2922 10015G25KT 5SM SHRA BKN025

KPGD - FM300100 06009KT P6SM SCT025 BKN100 OVC200

KPGD - FM301400 12010KT P6SM VCSH SCT025 BKN080 OVC200 =

KAPF - TAF KAPF 291745Z 2918/3018 13008G23KT P6SM VCSH SCT035 SCT050 BKN080

KAPF - TEMPO 2918/2919 VRB10G25KT 4SM SHRA BKN030 BKN050

KAPF - FM291900 13010G24KT P6SM VCTS SCT025CB BKN050

KAPF - FM300000 13008G15KT P6SM VCSH SCT030 BKN100 BKN250 =

GlobalAir.com is loading additional information.
 Current Weather at FMY
87.0 F° (30.6 C°)

East winds at 9.2 mph
Pressure:
29.91 in
Humidity:
65%
Wind:
East at 9.2 mph
Dew Point:
73.9 F° (23.3 C°)
Visibility:
10.00 mi
FMY NOAA Radar




Find All Airport Services Find A Hotel Find A Rental Car Find A Golf Course Find A Restaurant $100 Hamburger



Airport Weather Forecast for KFMY

Translated METAR for KFMY (1753 UTC)
METAR:
KFMY 291753Z Page Field, Fort Myers, FL (KFMY). Aug 29, 1753Z. Wind from 090° at 9 knots, 10 statute miles visibility, Few clouds at 5,000 feet, Scattered Clouds at 11,000 feet, Temperature 29°C, Dewpoint 24°C, Altimeter is 29.89. Remarks: automated station with precipitation discriminator rain began 6 minutes past the hour ended 18 minutes past the hour sea level pressure 1012.5 hectopascals less than 0.01 inches precipitation (water equivalent) in past hour trace of precipitation past 6 hours hourly temp 29.4°C dewpoint 23.9°C 6-hour max temp 31.7°C 6-hour min temp 25.0°C 3-hour atmospheric pressure steady or increasing, then decreasing; or decreasing then decreasing more rapidly by 0.9 hectopascals
Conditions at:
KFMY (Page Field, FL) observed 1753 UTC 29 August 2016
Temperature:
87.0 F° (30.6 C°)
Dewpoint:
not reported - refer to area weather report
Pressure:
29.91 Hg
Winds:
East at 9.2 MPH (8 KT)
Visibility:
10.00
Ceiling:
at least 12,000 feet AGL
Clouds:
not reported - refer to area weather report
Remarks:

Translated TAF for TAF for FMY is not available. Refer to local area forecast.
FBO's on the Field
FBO Company Facility Photos Services Transportation Aviation Fuel Prices: Prices include tax
Catering Weather Repair Courtesy Rental Type 100LL JetA JetA+ MOGAS 8087
 
Base Operations at Page Field

Currently rated 5 by 2 people
FS:Avfuel
Last Updated: Aug-09
Login to update fuel prices
SS:
Contact Base Operations at Page FieldMore FBO Information
 
Add another FBO Facility Photos Catering Weather Repair Courtesy Rental Type 100LL JetA JetA+ MOGAS 8087
Services Transportation Aviation Fuel Prices: Prices include tax


model-print
model-print
model-print
model-print